createdAt,value
2018-12-08T00:00:15.726Z,913.05
2018-12-08T00:01:15.709Z,913.03
2018-12-08T00:02:15.660Z,912.99
2018-12-08T00:03:15.734Z,912.97
2018-12-08T00:04:15.607Z,913.00
2018-12-08T00:05:15.568Z,913.02
2018-12-08T00:06:15.547Z,913.04
2018-12-08T00:07:15.504Z,913.04
2018-12-08T00:08:15.545Z,913.10
2018-12-08T00:09:15.447Z,913.12
2018-12-08T00:10:15.419Z,913.15
2018-12-08T00:11:15.391Z,913.15
2018-12-08T00:12:15.357Z,913.15
2018-12-08T00:13:15.328Z,913.17
2018-12-08T00:14:15.302Z,913.16
2018-12-08T00:15:15.264Z,913.16
2018-12-08T00:16:15.255Z,913.17
2018-12-08T00:17:15.216Z,913.18
2018-12-08T00:18:15.248Z,913.13
2018-12-08T00:19:15.155Z,913.20
2018-12-08T00:20:15.099Z,913.25
2018-12-08T00:21:15.075Z,913.26
2018-12-08T00:22:15.046Z,913.27
2018-12-08T00:23:15.002Z,913.31
2018-12-08T00:24:14.989Z,913.35
2018-12-08T00:25:15.013Z,913.34
2018-12-08T00:26:14.918Z,913.35
2018-12-08T00:27:14.886Z,913.34
2018-12-08T00:28:14.854Z,913.33
2018-12-08T00:29:14.932Z,913.29
2018-12-08T00:30:14.790Z,913.25
2018-12-08T00:31:14.757Z,913.21
2018-12-08T00:32:14.726Z,913.21
2018-12-08T00:33:14.718Z,913.19
2018-12-08T00:34:14.870Z,913.18
2018-12-08T00:35:14.637Z,913.19
2018-12-08T00:36:14.595Z,913.16
2018-12-08T00:37:14.584Z,913.19
2018-12-08T00:38:14.559Z,913.19
2018-12-08T00:39:14.887Z,913.25
2018-12-08T00:40:14.488Z,913.25
2018-12-08T00:41:14.634Z,913.28
2018-12-08T00:42:14.451Z,913.31
2018-12-08T00:43:14.389Z,913.31
2018-12-08T00:44:14.355Z,913.38
2018-12-08T00:45:14.344Z,913.36
2018-12-08T00:46:14.304Z,913.44
2018-12-08T00:47:14.250Z,913.40
2018-12-08T00:48:14.258Z,913.42
2018-12-08T00:49:14.211Z,913.41
2018-12-08T00:50:14.166Z,913.41
2018-12-08T00:51:14.141Z,913.40
2018-12-08T00:52:14.084Z,913.42
2018-12-08T00:53:14.067Z,913.45
2018-12-08T00:54:14.049Z,913.47
2018-12-08T00:55:13.986Z,913.49
2018-12-08T00:56:13.986Z,913.58
2018-12-08T00:57:13.953Z,913.67
2018-12-08T00:58:13.901Z,913.66
2018-12-08T00:59:13.900Z,913.77
2018-12-08T01:00:13.834Z,913.82
2018-12-08T01:02:13.765Z,913.88
2018-12-08T01:03:13.737Z,913.98
2018-12-08T01:04:13.715Z,913.95
2018-12-08T01:05:13.688Z,913.99
2018-12-08T01:06:13.666Z,913.97
2018-12-08T01:07:13.617Z,913.99
2018-12-08T01:08:13.587Z,914.00
2018-12-08T01:09:13.608Z,914.01
2018-12-08T01:10:13.542Z,914.02
2018-12-08T01:11:13.867Z,914.05
2018-12-08T01:12:13.494Z,914.05
2018-12-08T01:13:13.432Z,914.10
2018-12-08T01:14:13.417Z,914.10
2018-12-08T01:15:13.386Z,914.16
2018-12-08T01:16:13.329Z,914.16
2018-12-08T01:17:13.462Z,914.17
2018-12-08T01:18:13.273Z,914.14
2018-12-08T01:19:13.239Z,914.14
2018-12-08T01:20:13.244Z,914.10
2018-12-08T01:21:13.171Z,914.09
2018-12-08T01:22:13.148Z,914.08
2018-12-08T01:23:13.108Z,914.05
2018-12-08T01:24:13.115Z,914.04
2018-12-08T01:25:13.040Z,914.04
2018-12-08T01:26:13.034Z,913.99
2018-12-08T01:27:12.996Z,913.99
2018-12-08T01:28:13.045Z,914.06
2018-12-08T01:29:12.922Z,914.08
2018-12-08T01:30:12.951Z,914.09
2018-12-08T01:31:12.881Z,914.11
2018-12-08T01:32:12.815Z,914.17
2018-12-08T01:33:12.797Z,914.17
2018-12-08T01:34:12.766Z,914.18
2018-12-08T01:35:12.773Z,914.15
2018-12-08T01:36:12.739Z,914.15
2018-12-08T01:37:12.692Z,914.14
2018-12-08T01:38:12.785Z,914.14
2018-12-08T01:39:12.600Z,914.12
2018-12-08T01:40:12.592Z,914.11
2018-12-08T01:41:12.549Z,914.11
2018-12-08T01:42:12.540Z,914.06
2018-12-08T01:43:12.504Z,914.10
2018-12-08T01:44:12.501Z,914.07
2018-12-08T01:45:12.429Z,914.05
2018-12-08T01:46:12.426Z,914.01
2018-12-08T01:47:12.398Z,913.97
2018-12-08T01:48:12.333Z,913.90
2018-12-08T01:49:12.292Z,913.88
2018-12-08T01:50:12.292Z,913.87
2018-12-08T01:51:12.229Z,913.89
2018-12-08T01:52:12.226Z,913.88
2018-12-08T01:53:12.209Z,913.94
2018-12-08T01:54:12.130Z,913.92
2018-12-08T01:55:12.110Z,913.94
2018-12-08T01:56:12.079Z,913.94
2018-12-08T01:57:12.045Z,913.99
2018-12-08T01:58:12.038Z,914.00
2018-12-08T01:59:11.985Z,914.03
2018-12-08T02:00:11.937Z,914.03
2018-12-08T02:01:11.906Z,914.04
2018-12-08T02:02:11.905Z,914.03
2018-12-08T02:03:11.856Z,914.04
2018-12-08T02:04:11.849Z,914.06
2018-12-08T02:05:11.796Z,914.06
2018-12-08T02:06:11.784Z,914.04
2018-12-08T02:07:11.785Z,914.03
2018-12-08T02:08:11.699Z,913.94
2018-12-08T02:09:11.695Z,913.92
2018-12-08T02:10:11.800Z,913.89
2018-12-08T02:11:11.616Z,913.84
2018-12-08T02:12:11.569Z,913.84
2018-12-08T02:13:11.550Z,913.80
2018-12-08T02:14:11.493Z,913.82
2018-12-08T02:15:11.489Z,913.80
2018-12-08T02:16:11.584Z,913.84
2018-12-08T02:17:11.406Z,913.86
2018-12-08T02:18:11.414Z,913.88
2018-12-08T02:19:11.348Z,913.88
2018-12-08T02:20:11.308Z,913.84
2018-12-08T02:21:11.306Z,913.85
2018-12-08T02:22:11.266Z,913.81
2018-12-08T02:23:11.217Z,913.77
2018-12-08T02:24:11.182Z,913.75
2018-12-08T02:25:11.158Z,913.69
2018-12-08T02:26:11.113Z,913.66
2018-12-08T02:27:11.082Z,913.61
2018-12-08T02:28:11.088Z,913.56
2018-12-08T02:29:11.049Z,913.53
2018-12-08T02:30:10.991Z,913.53
2018-12-08T02:31:10.953Z,913.53
2018-12-08T02:32:10.926Z,913.49
2018-12-08T02:33:12.784Z,913.49
2018-12-08T02:34:10.888Z,913.53
2018-12-08T02:35:10.825Z,913.52
2018-12-08T02:36:10.795Z,913.51
2018-12-08T02:37:10.835Z,913.51
2018-12-08T02:38:10.768Z,913.50
2018-12-08T02:39:10.740Z,913.53
2018-12-08T02:40:10.758Z,913.49
2018-12-08T02:41:10.653Z,913.49
2018-12-08T02:42:10.808Z,913.45
2018-12-08T02:43:10.614Z,913.47
2018-12-08T02:44:10.593Z,913.44
2018-12-08T02:45:10.527Z,913.38
2018-12-08T02:46:10.480Z,913.43
2018-12-08T02:47:10.484Z,913.43
2018-12-08T02:48:10.498Z,913.38
2018-12-08T02:49:10.381Z,913.37
2018-12-08T02:50:10.372Z,913.34
2018-12-08T02:51:10.338Z,913.29
2018-12-08T02:52:10.304Z,913.25
2018-12-08T02:53:10.259Z,913.23
2018-12-08T02:54:10.267Z,913.21
2018-12-08T02:55:10.193Z,913.20
2018-12-08T02:56:10.170Z,913.19
2018-12-08T02:57:10.147Z,913.18
2018-12-08T02:58:10.104Z,913.16
2018-12-08T02:59:10.075Z,913.16
2018-12-08T03:00:10.046Z,913.12
2018-12-08T03:01:10.050Z,913.10
2018-12-08T03:02:09.996Z,913.06
2018-12-08T03:03:10.013Z,913.01
2018-12-08T03:04:09.941Z,912.98
2018-12-08T03:05:09.899Z,912.99
2018-12-08T03:06:09.875Z,912.95
2018-12-08T03:07:09.824Z,912.93
2018-12-08T03:08:09.786Z,912.86
2018-12-08T03:09:09.772Z,912.88
2018-12-08T03:10:09.743Z,912.87
2018-12-08T03:11:09.707Z,912.89
2018-12-08T03:12:09.684Z,912.89
2018-12-08T03:13:09.632Z,912.92
2018-12-08T03:14:09.759Z,912.95
2018-12-08T03:15:09.593Z,912.91
2018-12-08T03:16:09.549Z,912.91
2018-12-08T03:17:09.513Z,912.91
2018-12-08T03:18:09.481Z,912.89
2018-12-08T03:19:09.437Z,912.88
2018-12-08T03:20:09.420Z,912.90
2018-12-08T03:21:09.361Z,912.90
2018-12-08T03:22:09.334Z,912.93
2018-12-08T03:23:09.304Z,912.95
2018-12-08T03:24:09.311Z,912.99
2018-12-08T03:25:09.268Z,912.99
2018-12-08T03:26:09.209Z,913.03
2018-12-08T03:27:09.230Z,913.03
2018-12-08T03:28:09.157Z,913.02
2018-12-08T03:29:09.140Z,913.05
2018-12-08T03:30:09.097Z,913.06
2018-12-08T03:31:09.082Z,913.03
2018-12-08T03:32:09.090Z,913.03
2018-12-08T03:33:09.006Z,913.05
2018-12-08T03:34:08.989Z,913.05
2018-12-08T03:35:08.963Z,913.09
2018-12-08T03:36:08.924Z,913.11
2018-12-08T03:37:08.853Z,913.10
2018-12-08T03:38:08.820Z,913.07
2018-12-08T03:39:08.822Z,913.01
2018-12-08T03:40:08.769Z,912.98
2018-12-08T03:41:08.738Z,912.94
2018-12-08T03:42:08.696Z,912.93
2018-12-08T03:43:08.693Z,912.86
2018-12-08T03:44:08.629Z,912.84
2018-12-08T03:45:08.652Z,912.84
2018-12-08T03:46:08.721Z,912.82
2018-12-08T03:47:08.537Z,912.83
2018-12-08T03:48:08.527Z,912.79
2018-12-08T03:49:08.473Z,912.78
2018-12-08T03:50:08.438Z,912.73
2018-12-08T03:51:08.526Z,912.69
2018-12-08T03:52:08.379Z,912.61
2018-12-08T03:53:08.358Z,912.62
2018-12-08T03:54:08.319Z,912.59
2018-12-08T03:55:08.281Z,912.58
2018-12-08T03:56:08.252Z,912.55
2018-12-08T03:57:08.243Z,912.54
2018-12-08T03:58:08.214Z,912.58
2018-12-08T03:59:08.178Z,912.57
2018-12-08T04:00:08.127Z,912.54
2018-12-08T04:01:08.090Z,912.48
2018-12-08T04:02:08.064Z,912.47
2018-12-08T04:03:08.042Z,912.40
2018-12-08T04:04:08.028Z,912.40
2018-12-08T04:05:07.984Z,912.37
2018-12-08T04:06:07.961Z,912.43
2018-12-08T04:07:07.943Z,912.39
2018-12-08T04:08:07.914Z,912.42
2018-12-08T04:09:07.835Z,912.46
2018-12-08T04:10:07.803Z,912.47
2018-12-08T04:11:07.803Z,912.52
2018-12-08T04:12:07.769Z,912.48
2018-12-08T04:13:07.704Z,912.45
2018-12-08T04:14:07.752Z,912.44
2018-12-08T04:15:07.681Z,912.44
2018-12-08T04:16:07.611Z,912.42
2018-12-08T04:17:07.608Z,912.34
2018-12-08T04:18:07.563Z,912.27
2018-12-08T04:19:07.582Z,912.27
2018-12-08T04:20:07.495Z,912.27
2018-12-08T04:21:07.452Z,912.25
2018-12-08T04:22:07.450Z,912.25
2018-12-08T04:23:07.393Z,912.21
2018-12-08T04:24:07.360Z,912.17
2018-12-08T04:25:07.342Z,912.14
2018-12-08T04:26:07.327Z,912.02
2018-12-08T04:27:07.261Z,912.01
2018-12-08T04:28:07.226Z,911.91
2018-12-08T04:29:07.199Z,911.86
2018-12-08T04:30:07.160Z,911.81
2018-12-08T04:31:07.160Z,911.80
2018-12-08T04:32:07.100Z,911.74
2018-12-08T04:33:07.102Z,911.69
2018-12-08T04:34:07.072Z,911.73
2018-12-08T04:35:07.010Z,911.66
2018-12-08T04:36:07.015Z,911.69
2018-12-08T04:37:07.043Z,911.63
2018-12-08T04:38:06.927Z,911.69
2018-12-08T04:39:06.919Z,911.67
2018-12-08T04:40:06.870Z,911.73
2018-12-08T04:41:06.817Z,911.78
2018-12-08T04:42:06.816Z,911.85
2018-12-08T04:43:06.770Z,911.90
2018-12-08T04:44:06.944Z,911.93
2018-12-08T04:45:06.681Z,911.96
2018-12-08T04:46:06.692Z,911.99
2018-12-08T04:47:06.663Z,912.03
2018-12-08T04:48:06.636Z,912.03
2018-12-08T04:49:06.559Z,912.03
2018-12-08T04:50:06.519Z,912.05
2018-12-08T04:51:06.543Z,912.04
2018-12-08T04:52:06.467Z,912.08
2018-12-08T04:53:06.445Z,912.06
2018-12-08T04:54:06.399Z,912.01
2018-12-08T04:55:06.370Z,912.02
2018-12-08T04:56:06.355Z,911.95
2018-12-08T04:57:06.309Z,911.95
2018-12-08T04:58:06.273Z,911.89
2018-12-08T04:59:06.236Z,911.86
2018-12-08T05:00:06.249Z,911.86
2018-12-08T05:01:06.198Z,911.83
2018-12-08T05:02:06.150Z,911.77
2018-12-08T05:03:06.138Z,911.79
2018-12-08T05:04:06.101Z,911.77
2018-12-08T05:05:06.037Z,911.78
2018-12-08T05:06:06.034Z,911.78
2018-12-08T05:07:06.015Z,911.71
2018-12-08T05:08:05.950Z,911.70
2018-12-08T05:09:05.945Z,911.68
2018-12-08T05:10:05.882Z,911.63
2018-12-08T05:11:05.871Z,911.60
2018-12-08T05:12:05.850Z,911.61
2018-12-08T05:13:05.814Z,911.61
2018-12-08T05:14:05.795Z,911.63
2018-12-08T05:15:05.733Z,911.57
2018-12-08T05:16:05.722Z,911.61
2018-12-08T05:17:05.882Z,911.58
2018-12-08T05:18:05.645Z,911.60
2018-12-08T05:19:05.590Z,911.60
2018-12-08T05:20:05.575Z,911.56
2018-12-08T05:21:05.526Z,911.57
2018-12-08T05:22:05.518Z,911.54
2018-12-08T05:23:05.689Z,911.55
2018-12-08T05:24:05.449Z,911.61
2018-12-08T05:25:05.406Z,911.58
2018-12-08T05:26:05.366Z,911.61
2018-12-08T05:27:05.354Z,911.66
2018-12-08T05:28:05.337Z,911.68
2018-12-08T05:29:05.287Z,911.68
2018-12-08T05:30:05.239Z,911.70
2018-12-08T05:31:05.221Z,911.67
2018-12-08T05:32:05.183Z,911.67
2018-12-08T05:33:05.142Z,911.63
2018-12-08T05:34:05.127Z,911.64
2018-12-08T05:35:05.078Z,911.61
2018-12-08T05:36:05.047Z,911.60
2018-12-08T05:37:05.043Z,911.65
2018-12-08T05:38:05.002Z,911.61
2018-12-08T05:39:04.947Z,911.57
2018-12-08T05:40:04.918Z,911.55
2018-12-08T05:41:04.893Z,911.57
2018-12-08T05:42:04.865Z,911.60
2018-12-08T05:43:04.846Z,911.60
2018-12-08T05:44:04.801Z,911.55
2018-12-08T05:45:04.808Z,911.54
2018-12-08T05:46:04.738Z,911.54
2018-12-08T05:47:04.692Z,911.53
2018-12-08T05:48:04.693Z,911.57
2018-12-08T05:49:04.845Z,911.52
2018-12-08T05:50:04.618Z,911.52
2018-12-08T05:51:04.584Z,911.53
2018-12-08T05:52:04.530Z,911.57
2018-12-08T05:53:04.519Z,911.54
2018-12-08T05:54:04.466Z,911.50
2018-12-08T05:55:04.469Z,911.49
2018-12-08T05:56:04.407Z,911.47
2018-12-08T05:57:04.390Z,911.47
2018-12-08T05:58:04.379Z,911.44
2018-12-08T05:59:04.326Z,911.42
2018-12-08T06:00:04.303Z,911.41
2018-12-08T06:01:04.252Z,911.37
2018-12-08T06:02:04.225Z,911.33
2018-12-08T06:03:04.177Z,911.29
2018-12-08T06:04:04.166Z,911.32
2018-12-08T06:05:04.144Z,911.33
2018-12-08T06:06:04.119Z,911.36
2018-12-08T06:07:04.051Z,911.33
2018-12-08T06:08:04.035Z,911.36
2018-12-08T06:09:04.033Z,911.35
2018-12-08T06:10:03.971Z,911.32
2018-12-08T06:11:03.925Z,911.31
2018-12-08T06:12:03.938Z,911.35
2018-12-08T06:13:03.861Z,911.32
2018-12-08T06:14:03.869Z,911.36
2018-12-08T06:15:03.800Z,911.37
2018-12-08T06:16:03.964Z,911.32
2018-12-08T06:17:03.758Z,911.34
2018-12-08T06:18:03.722Z,911.33
2018-12-08T06:19:03.673Z,911.32
2018-12-08T06:20:03.641Z,911.31
2018-12-08T06:21:03.609Z,911.27
2018-12-08T06:22:03.570Z,911.31
2018-12-08T06:23:03.540Z,911.29
2018-12-08T06:24:03.512Z,911.33
2018-12-08T06:25:03.480Z,911.33
2018-12-08T06:26:03.441Z,911.32
2018-12-08T06:27:03.442Z,911.32
2018-12-08T06:28:03.377Z,911.31
2018-12-08T06:29:03.408Z,911.28
2018-12-08T06:30:03.317Z,911.30
2018-12-08T06:31:03.291Z,911.28
2018-12-08T06:32:03.257Z,911.26
2018-12-08T06:33:03.224Z,911.28
2018-12-08T06:34:03.195Z,911.28
2018-12-08T06:35:03.159Z,911.31
2018-12-08T06:36:03.127Z,911.24
2018-12-08T06:37:03.093Z,911.27
2018-12-08T06:38:03.062Z,911.24
2018-12-08T06:39:03.021Z,911.29
2018-12-08T06:40:03.007Z,911.30
2018-12-08T06:41:02.968Z,911.26
2018-12-08T06:42:02.933Z,911.25
2018-12-08T06:43:02.904Z,911.30
2018-12-08T06:44:02.869Z,911.29
2018-12-08T06:45:02.839Z,911.35
2018-12-08T06:46:02.814Z,911.33
2018-12-08T06:47:02.784Z,911.30
2018-12-08T06:48:02.886Z,911.30
2018-12-08T06:49:02.704Z,911.28
2018-12-08T06:50:02.679Z,911.27
2018-12-08T06:51:02.658Z,911.31
2018-12-08T06:52:02.620Z,911.30
2018-12-08T06:53:02.574Z,911.31
2018-12-08T06:54:02.553Z,911.31
2018-12-08T06:55:02.523Z,911.28
2018-12-08T06:56:02.484Z,911.31
2018-12-08T06:57:02.475Z,911.32
2018-12-08T06:58:02.421Z,911.29
2018-12-08T06:59:02.391Z,911.26
2018-12-08T07:00:02.364Z,911.29
2018-12-08T07:01:02.322Z,911.28
2018-12-08T07:02:02.289Z,911.26
2018-12-08T07:03:02.259Z,911.24
2018-12-08T07:04:02.222Z,911.23
2018-12-08T07:05:02.219Z,911.22
2018-12-08T07:06:02.170Z,911.23
2018-12-08T07:07:02.124Z,911.20
2018-12-08T07:08:02.120Z,911.25
2018-12-08T07:09:02.065Z,911.24
2018-12-08T07:10:02.029Z,911.25
2018-12-08T07:11:01.994Z,911.24
2018-12-08T07:12:01.961Z,911.25
2018-12-08T07:13:01.933Z,911.29
2018-12-08T07:14:01.901Z,911.30
2018-12-08T07:15:01.874Z,911.29
2018-12-08T07:16:01.840Z,911.29
2018-12-08T07:17:01.822Z,911.34
2018-12-08T07:18:01.776Z,911.36
2018-12-08T07:19:01.741Z,911.31
2018-12-08T07:20:02.057Z,911.32
2018-12-08T07:21:01.677Z,911.28
2018-12-08T07:22:01.649Z,911.28
2018-12-08T07:23:01.626Z,911.31
2018-12-08T07:24:01.590Z,911.33
2018-12-08T07:25:01.555Z,911.33
2018-12-08T07:26:01.511Z,911.35
2018-12-08T07:27:01.491Z,911.36
2018-12-08T07:28:01.455Z,911.32
2018-12-08T07:29:01.421Z,911.37
2018-12-08T07:30:01.379Z,911.34
2018-12-08T07:31:01.350Z,911.34
2018-12-08T07:32:38.786Z,911.34
2018-12-08T07:33:01.291Z,911.31
2018-12-08T07:34:01.255Z,911.30
2018-12-08T07:35:01.220Z,911.27
2018-12-08T07:36:01.223Z,911.25
2018-12-08T07:37:01.153Z,911.26
2018-12-08T07:38:01.141Z,911.25
2018-12-08T07:39:01.117Z,911.25
2018-12-08T07:40:01.086Z,911.26
2018-12-08T07:41:01.032Z,911.30
2018-12-08T07:42:01.011Z,911.24
2018-12-08T07:43:00.974Z,911.27
2018-12-08T07:44:00.928Z,911.25
2018-12-08T07:45:00.907Z,911.32
2018-12-08T07:46:00.873Z,911.30
2018-12-08T07:47:01.045Z,911.34
2018-12-08T07:48:00.804Z,911.42
2018-12-08T07:49:00.777Z,911.44
2018-12-08T07:50:00.795Z,911.44
2018-12-08T07:51:00.710Z,911.45
2018-12-08T07:52:00.674Z,911.48
2018-12-08T07:53:00.847Z,911.50
2018-12-08T07:54:00.622Z,911.51
2018-12-08T07:55:00.600Z,911.54
2018-12-08T07:56:00.555Z,911.57
2018-12-08T07:57:00.525Z,911.62
2018-12-08T07:58:00.490Z,911.64
2018-12-08T07:59:00.662Z,911.67
2018-12-08T08:00:00.420Z,911.65
2018-12-08T08:01:00.382Z,911.66
2018-12-08T08:02:00.364Z,911.70
2018-12-08T08:03:00.321Z,911.68
2018-12-08T08:04:00.295Z,911.66
2018-12-08T08:06:00.234Z,911.69
2018-12-08T08:07:00.200Z,911.69
2018-12-08T08:08:00.262Z,911.72
2018-12-08T08:09:00.138Z,911.73
2018-12-08T08:10:00.102Z,911.77
2018-12-08T08:11:00.065Z,911.77
2018-12-08T08:12:00.048Z,911.78
2018-12-08T08:12:59.999Z,911.84
2018-12-08T08:13:59.968Z,911.83
2018-12-08T08:14:59.930Z,911.88
2018-12-08T08:15:59.900Z,911.84
2018-12-08T08:16:59.876Z,911.86
2018-12-08T08:17:59.831Z,911.88
2018-12-08T08:18:59.817Z,911.88
2018-12-08T08:20:00.015Z,911.94
2018-12-08T08:20:59.743Z,911.94
2018-12-08T08:21:59.711Z,911.93
2018-12-08T08:22:59.678Z,911.94
2018-12-08T08:23:59.658Z,911.94
2018-12-08T08:24:59.624Z,911.95
2018-12-08T08:25:59.581Z,911.93
2018-12-08T08:26:59.546Z,911.94
2018-12-08T08:27:59.516Z,911.92
2018-12-08T08:28:59.480Z,911.97
2018-12-08T08:29:59.457Z,911.95
2018-12-08T08:30:59.427Z,911.97
2018-12-08T08:31:59.387Z,912.01
2018-12-08T08:32:59.347Z,912.03
2018-12-08T08:33:59.321Z,912.07
2018-12-08T08:34:59.312Z,912.07
2018-12-08T08:35:59.260Z,912.07
2018-12-08T08:36:59.222Z,912.13
2018-12-08T08:37:59.184Z,912.11
2018-12-08T08:38:59.157Z,912.11
2018-12-08T08:39:59.133Z,912.11
2018-12-08T08:40:59.119Z,912.09
2018-12-08T08:41:59.063Z,912.09
2018-12-08T08:42:59.031Z,912.11
2018-12-08T08:43:59.001Z,912.14
2018-12-08T08:44:58.970Z,912.13
2018-12-08T08:45:58.925Z,912.12
2018-12-08T08:46:58.902Z,912.14
2018-12-08T08:47:59.023Z,912.14
2018-12-08T08:48:58.876Z,912.15
2018-12-08T08:49:58.797Z,912.21
2018-12-08T08:50:58.766Z,912.19
2018-12-08T08:51:58.739Z,912.23
2018-12-08T08:52:58.707Z,912.21
2018-12-08T08:53:58.676Z,912.16
2018-12-08T08:54:58.637Z,912.19
2018-12-08T08:55:58.610Z,912.19
2018-12-08T08:56:58.580Z,912.20
2018-12-08T08:57:58.563Z,912.22
2018-12-08T08:58:58.522Z,912.24
2018-12-08T08:59:58.488Z,912.26
2018-12-08T09:00:58.455Z,912.25
2018-12-08T09:01:58.430Z,912.29
2018-12-08T09:02:58.382Z,912.29
2018-12-08T09:03:58.347Z,912.31
2018-12-08T09:04:58.316Z,912.29
2018-12-08T09:05:58.285Z,912.30
2018-12-08T09:06:58.254Z,912.28
2018-12-08T09:07:58.222Z,912.27
2018-12-08T09:08:58.199Z,912.29
2018-12-08T09:09:58.160Z,912.34
2018-12-08T09:10:58.132Z,912.34
2018-12-08T09:11:58.096Z,912.37
2018-12-08T09:12:58.065Z,912.39
2018-12-08T09:13:58.036Z,912.36
2018-12-08T09:14:58.004Z,912.41
2018-12-08T09:15:57.970Z,912.40
2018-12-08T09:16:57.929Z,912.39
2018-12-08T09:17:57.904Z,912.36
2018-12-08T09:18:57.880Z,912.43
2018-12-08T09:19:57.991Z,912.41
2018-12-08T09:20:57.798Z,912.48
2018-12-08T09:21:57.767Z,912.50
2018-12-08T09:22:57.748Z,912.56
2018-12-08T09:23:57.786Z,912.59
2018-12-08T09:24:57.668Z,912.62
2018-12-08T09:25:57.847Z,912.67
2018-12-08T09:26:57.611Z,912.72
2018-12-08T09:27:57.582Z,912.76
2018-12-08T09:28:57.544Z,912.75
2018-12-08T09:29:57.529Z,912.73
2018-12-08T09:30:57.481Z,912.75
2018-12-08T09:31:57.457Z,912.77
2018-12-08T09:32:57.419Z,912.77
2018-12-08T09:33:57.392Z,912.74
2018-12-08T09:34:57.350Z,912.78
2018-12-08T09:35:57.326Z,912.75
2018-12-08T09:36:57.297Z,912.75
2018-12-08T09:37:57.262Z,912.78
2018-12-08T09:38:57.285Z,912.78
2018-12-08T09:39:57.320Z,912.78
2018-12-08T09:40:57.159Z,912.82
2018-12-08T09:41:57.135Z,912.84
2018-12-08T09:42:57.091Z,912.88
2018-12-08T09:43:57.071Z,912.87
2018-12-08T09:44:57.041Z,912.88
2018-12-08T09:45:57.001Z,912.87
2018-12-08T09:46:56.970Z,912.87
2018-12-08T09:47:56.936Z,912.87
2018-12-08T09:48:56.920Z,912.89
2018-12-08T09:49:56.897Z,912.88
2018-12-08T09:50:56.848Z,912.91
2018-12-08T09:51:56.958Z,912.92
2018-12-08T09:52:56.785Z,912.91
2018-12-08T09:53:56.759Z,912.90
2018-12-08T09:54:56.727Z,912.92
2018-12-08T09:55:56.694Z,912.88
2018-12-08T09:56:56.643Z,912.86
2018-12-08T09:57:56.619Z,912.89
2018-12-08T09:58:56.604Z,912.90
2018-12-08T09:59:56.549Z,912.87
2018-12-08T10:00:56.541Z,912.88
2018-12-08T10:01:56.502Z,912.87
2018-12-08T10:02:56.459Z,912.88
2018-12-08T10:03:56.424Z,912.89
2018-12-08T10:04:56.392Z,912.86
2018-12-08T10:05:56.361Z,912.85
2018-12-08T10:06:56.332Z,912.86
2018-12-08T10:07:56.315Z,912.84
2018-12-08T10:08:56.262Z,912.84
2018-12-08T10:09:56.236Z,912.87
2018-12-08T10:10:56.204Z,912.88
2018-12-08T10:11:56.174Z,912.87
2018-12-08T10:12:56.160Z,912.87
2018-12-08T10:13:56.129Z,912.84
2018-12-08T10:14:56.091Z,912.82
2018-12-08T10:15:56.060Z,912.84
2018-12-08T10:16:56.023Z,912.83
2018-12-08T10:17:55.976Z,912.86
2018-12-08T10:18:55.944Z,912.87
2018-12-08T10:19:55.919Z,912.88
2018-12-08T10:20:55.895Z,912.88
2018-12-08T10:21:55.854Z,912.90
2018-12-08T10:22:55.824Z,912.89
2018-12-08T10:23:55.935Z,912.90
2018-12-08T10:24:55.764Z,912.93
2018-12-08T10:25:55.729Z,912.93
2018-12-08T10:26:55.703Z,912.97
2018-12-08T10:27:55.666Z,912.97
2018-12-08T10:28:55.639Z,912.96
2018-12-08T10:29:55.616Z,912.98
2018-12-08T10:30:55.609Z,912.99
2018-12-08T10:31:55.538Z,912.99
2018-12-08T10:32:55.520Z,912.98
2018-12-08T10:33:55.479Z,913.03
2018-12-08T10:34:55.509Z,913.03
2018-12-08T10:35:55.458Z,913.04
2018-12-08T10:36:55.387Z,913.08
2018-12-08T10:37:55.358Z,913.09
2018-12-08T10:38:55.358Z,913.06
2018-12-08T10:39:55.342Z,913.09
2018-12-08T10:40:55.249Z,913.06
2018-12-08T10:41:55.239Z,913.11
2018-12-08T10:42:55.239Z,913.09
2018-12-08T10:43:55.219Z,913.09
2018-12-08T10:44:55.390Z,913.07
2018-12-08T10:45:55.091Z,913.12
2018-12-08T10:46:55.068Z,913.13
2018-12-08T10:47:55.036Z,913.12
2018-12-08T10:48:55.268Z,913.13
2018-12-08T10:49:55.073Z,913.11
2018-12-08T10:50:54.934Z,913.15
2018-12-08T10:51:54.923Z,913.13
2018-12-08T10:52:55.077Z,913.10
2018-12-08T10:53:54.878Z,913.09
2018-12-08T10:54:54.817Z,913.11
2018-12-08T10:55:55.038Z,913.11
2018-12-08T10:56:54.778Z,913.12
2018-12-08T10:57:54.713Z,913.16
2018-12-08T10:58:54.770Z,913.17
2018-12-08T10:59:54.688Z,913.17
2018-12-08T11:00:54.827Z,913.22
2018-12-08T11:01:54.621Z,913.19
2018-12-08T11:02:54.560Z,913.20
2018-12-08T11:03:54.523Z,913.22
2018-12-08T11:04:54.508Z,913.22
2018-12-08T11:05:54.467Z,913.20
2018-12-08T11:06:54.456Z,913.23
2018-12-08T11:07:54.411Z,913.23
2018-12-08T11:08:54.402Z,913.23
2018-12-08T11:09:54.366Z,913.28
2018-12-08T11:10:54.506Z,913.26
2018-12-08T11:11:54.280Z,913.28
2018-12-08T11:12:54.244Z,913.30
2018-12-08T11:13:54.220Z,913.31
2018-12-08T11:15:00.661Z,913.34
2018-12-08T11:15:54.414Z,913.32
2018-12-08T11:16:54.155Z,913.32
2018-12-08T11:17:54.208Z,913.32
2018-12-08T11:18:54.107Z,913.32
2018-12-08T11:19:54.021Z,913.39
2018-12-08T11:20:54.013Z,913.38
2018-12-08T11:21:53.969Z,913.38
2018-12-08T11:22:53.941Z,913.42
2018-12-08T11:23:53.900Z,913.42
2018-12-08T11:24:53.864Z,913.43
2018-12-08T11:25:53.863Z,913.38
2018-12-08T11:27:53.797Z,913.41
2018-12-08T11:28:53.748Z,913.40
2018-12-08T11:29:53.737Z,913.40
2018-12-08T11:30:53.680Z,913.41
2018-12-08T11:32:53.638Z,913.42
2018-12-08T11:33:53.586Z,913.46
2018-12-08T11:34:53.550Z,913.47
2018-12-08T11:35:53.537Z,913.45
2018-12-08T11:36:53.488Z,913.50
2018-12-08T11:37:53.461Z,913.49
2018-12-08T11:38:53.457Z,913.50
2018-12-08T11:39:53.400Z,913.51
2018-12-08T11:40:53.367Z,913.52
2018-12-08T11:41:53.400Z,913.51
2018-12-08T11:42:53.608Z,913.52
2018-12-08T11:43:53.277Z,913.55
2018-12-08T11:44:53.248Z,913.57
2018-12-08T11:45:53.229Z,913.52
2018-12-08T11:46:53.212Z,913.55
2018-12-08T11:47:53.510Z,913.53
2018-12-08T11:48:53.710Z,913.57
2018-12-08T11:49:53.080Z,913.56
2018-12-08T11:50:53.055Z,913.58
2018-12-08T11:51:53.019Z,913.58
2018-12-08T11:52:53.018Z,913.64
2018-12-08T11:53:52.969Z,913.60
2018-12-08T11:54:53.619Z,913.58
2018-12-08T11:55:52.906Z,913.58
2018-12-08T11:56:52.863Z,913.64
2018-12-08T11:57:53.016Z,913.62
2018-12-08T11:58:52.815Z,913.64
2018-12-08T11:59:52.781Z,913.68
2018-12-08T12:00:52.748Z,913.71
2018-12-08T12:01:52.734Z,913.76
2018-12-08T12:02:52.749Z,913.78
2018-12-08T12:03:52.664Z,913.77
2018-12-08T12:04:52.764Z,913.77
2018-12-08T12:05:52.599Z,913.80
2018-12-08T12:06:52.554Z,913.77
2018-12-08T12:07:52.762Z,913.78
2018-12-08T12:08:52.495Z,913.78
2018-12-08T12:09:52.461Z,913.80
2018-12-08T12:10:52.432Z,913.79
2018-12-08T12:11:52.401Z,913.80
2018-12-08T12:12:52.388Z,913.81
2018-12-08T12:13:52.333Z,913.80
2018-12-08T12:14:52.326Z,913.81
2018-12-08T12:15:52.281Z,913.85
2018-12-08T12:16:52.254Z,913.85
2018-12-08T12:17:52.282Z,913.85
2018-12-08T12:19:52.146Z,913.87
2018-12-08T12:20:52.111Z,913.84
2018-12-08T12:21:52.109Z,913.90
2018-12-08T12:22:52.064Z,913.89
2018-12-08T12:23:52.046Z,913.88
2018-12-08T12:24:51.999Z,913.95
2018-12-08T12:25:51.973Z,913.93
2018-12-08T12:26:51.937Z,913.94
2018-12-08T12:27:51.916Z,913.95
2018-12-08T12:28:52.025Z,913.96
2018-12-08T12:29:51.839Z,913.99
2018-12-08T12:30:51.819Z,913.97
2018-12-08T12:31:51.791Z,914.00
2018-12-08T12:32:51.760Z,914.03